createdAt,value
2023-04-11T00:02:20.298Z,98783.50
2023-04-11T00:06:23.950Z,98845.94
2023-04-11T00:10:27.251Z,98762.00
2023-04-11T00:14:32.577Z,98799.78
2023-04-11T00:18:39.829Z,98820.31
2023-04-11T00:22:43.861Z,98795.81
2023-04-11T00:26:46.902Z,98799.94
2023-04-11T00:30:49.972Z,98793.00
2023-04-11T00:34:55.511Z,98794.41
2023-04-11T00:38:58.771Z,98821.56
2023-04-11T00:43:01.691Z,98818.34
2023-04-11T00:47:07.272Z,98778.00
2023-04-11T00:51:12.109Z,98791.09
2023-04-11T00:55:15.725Z,98792.09
2023-04-11T00:59:18.686Z,98804.97
2023-04-11T01:03:22.159Z,98811.81
2023-04-11T01:07:27.516Z,98808.13
2023-04-11T01:11:31.084Z,98812.22
2023-04-11T01:15:34.078Z,98820.38
2023-04-11T01:19:36.822Z,98819.63
2023-04-11T01:23:41.255Z,98833.78
2023-04-11T01:27:44.997Z,98828.44
2023-04-11T01:31:47.647Z,98828.09
2023-04-11T01:35:51.021Z,98822.53
2023-04-11T01:39:55.395Z,98831.53
2023-04-11T01:43:58.602Z,98831.47
2023-04-11T01:48:01.609Z,98839.00
2023-04-11T01:52:04.861Z,98810.03
2023-04-11T01:56:11.289Z,98827.69
2023-04-11T02:00:15.263Z,98846.66
2023-04-11T02:04:18.484Z,98852.19
2023-04-11T02:08:21.731Z,98836.09
2023-04-11T02:12:26.223Z,98822.19
2023-04-11T02:16:30.220Z,98830.41
2023-04-11T02:20:33.260Z,98848.44
2023-04-11T02:24:36.642Z,98853.09
2023-04-11T02:28:40.918Z,98860.66
2023-04-11T02:32:43.714Z,98867.66
2023-04-11T02:36:46.919Z,98835.09
2023-04-11T02:40:50.013Z,98874.81
2023-04-11T02:44:56.600Z,98851.25
2023-04-11T02:48:59.551Z,98878.28
2023-04-11T02:53:02.379Z,98860.25
2023-04-11T02:57:05.587Z,98871.53
2023-04-11T03:01:11.977Z,98876.72
2023-04-11T03:05:16.529Z,98878.13
2023-04-11T03:09:19.331Z,98852.69
2023-04-11T03:13:22.333Z,98848.53
2023-04-11T03:17:26.625Z,98828.34
2023-04-11T03:21:29.601Z,98865.06
2023-04-11T03:25:32.565Z,98877.28
2023-04-11T03:29:35.486Z,98880.09
2023-04-11T03:33:39.890Z,98876.66
2023-04-11T03:37:42.893Z,98887.56
2023-04-11T03:41:45.721Z,98851.97
2023-04-11T03:45:48.707Z,98901.47
2023-04-11T03:49:53.270Z,98918.22
2023-04-11T03:53:56.244Z,98925.28
2023-04-11T03:57:59.670Z,98923.56
2023-04-11T04:02:02.774Z,98933.94
2023-04-11T04:06:08.117Z,98933.28
2023-04-11T04:10:11.217Z,98928.09
2023-04-11T04:14:14.620Z,98929.81
2023-04-11T04:18:17.702Z,98922.72
2023-04-11T04:22:22.374Z,98933.91
2023-04-11T04:26:25.960Z,98943.03
2023-04-11T04:30:29.694Z,98948.97
2023-04-11T04:34:32.576Z,98943.91
2023-04-11T04:38:38.491Z,98942.69
2023-04-11T04:42:43.238Z,98965.44
2023-04-11T04:46:46.090Z,98964.72
2023-04-11T04:50:49.134Z,98952.59
2023-04-11T04:54:53.823Z,98962.06
2023-04-11T04:58:56.915Z,98975.66
2023-04-11T05:02:59.873Z,98946.09
2023-04-11T05:07:02.899Z,98964.84
2023-04-11T05:11:07.261Z,98996.16
2023-04-11T05:15:11.803Z,99000.84
2023-04-11T05:19:14.782Z,99005.97
2023-04-11T05:23:17.685Z,99001.47
2023-04-11T05:27:22.003Z,99011.91
2023-04-11T05:31:25.734Z,99015.88
2023-04-11T05:35:28.521Z,99019.47
2023-04-11T05:39:31.400Z,99009.31
2023-04-11T05:43:35.673Z,98991.94
2023-04-11T05:47:38.886Z,99026.34
2023-04-11T05:51:41.709Z,99030.56
2023-04-11T05:55:44.525Z,99019.84
2023-04-11T05:59:57.349Z,98955.06
2023-04-11T06:04:00.523Z,99023.66
2023-04-11T06:08:04.560Z,99043.94
2023-04-11T06:12:08.144Z,99061.53
2023-04-11T06:16:19.118Z,99033.28
2023-04-11T06:20:29.827Z,99078.25
2023-04-11T06:24:36.758Z,99071.84
2023-04-11T06:28:39.708Z,99067.81
2023-04-11T06:32:47.169Z,99089.13
2023-04-11T06:36:51.072Z,99086.00
2023-04-11T06:40:54.665Z,99082.50
2023-04-11T06:44:57.405Z,99091.41
2023-04-11T06:49:03.436Z,99100.75
2023-04-11T06:53:06.349Z,99093.50
2023-04-11T06:57:10.575Z,99102.19
2023-04-11T07:01:14.692Z,99082.13
2023-04-11T07:05:19.489Z,99076.84
2023-04-11T07:09:23.050Z,99096.47
2023-04-11T07:13:25.970Z,99090.84
2023-04-11T07:17:29.059Z,99096.00
2023-04-11T07:21:33.445Z,99112.34
2023-04-11T07:25:37.088Z,99091.94
2023-04-11T07:29:41.147Z,99099.44
2023-04-11T07:33:44.528Z,99117.75
2023-04-11T07:37:48.948Z,99112.09
2023-04-11T07:41:52.422Z,99120.84
2023-04-11T07:45:57.000Z,99129.94
2023-04-11T07:49:59.902Z,99124.69
2023-04-11T07:54:04.259Z,99124.66
2023-04-11T07:58:07.237Z,99123.06
2023-04-11T08:02:10.154Z,99131.22
2023-04-11T08:06:13.692Z,99126.00
2023-04-11T08:10:17.862Z,99132.13
2023-04-11T08:14:20.768Z,99136.09
2023-04-11T08:18:24.356Z,99136.00
2023-04-11T08:22:27.898Z,99146.34
2023-04-11T08:26:32.152Z,99143.13
2023-04-11T08:30:35.471Z,99136.03
2023-04-11T08:34:38.725Z,99145.22
2023-04-11T08:38:41.773Z,99141.84
2023-04-11T08:42:45.835Z,99146.22
2023-04-11T08:46:48.931Z,99152.59
2023-04-11T08:50:51.657Z,99151.78
2023-04-11T08:54:55.885Z,99146.69
2023-04-11T08:59:00.150Z,99152.66
2023-04-11T09:03:04.236Z,99148.38
2023-04-11T09:07:07.210Z,99146.31
2023-04-11T09:11:09.913Z,99158.63
2023-04-11T09:15:21.090Z,99154.44
2023-04-11T09:19:27.715Z,99156.09
2023-04-11T09:23:30.594Z,99142.94
2023-04-11T09:27:33.296Z,99149.47
2023-04-11T09:31:45.273Z,99155.56
2023-04-11T09:35:48.821Z,99161.13
2023-04-11T09:39:59.538Z,99157.38
2023-04-11T09:44:02.598Z,99156.50
2023-04-11T09:48:07.305Z,99163.72
2023-04-11T09:52:10.064Z,99158.66
2023-04-11T09:56:13.286Z,99156.56
2023-04-11T10:00:18.561Z,99156.41
2023-04-11T10:04:22.884Z,99159.00
2023-04-11T10:08:30.522Z,99151.72
2023-04-11T10:12:33.959Z,99173.28
2023-04-11T10:16:37.897Z,99159.13
2023-04-11T10:20:47.372Z,99156.97
2023-04-11T10:25:16.970Z,99154.44
2023-04-11T10:29:50.718Z,99162.66
2023-04-11T10:34:15.077Z,99160.53
2023-04-11T10:38:51.036Z,99158.53
2023-04-11T10:42:54.009Z,99156.28
2023-04-11T10:46:57.167Z,99157.09
2023-04-11T10:50:59.968Z,99157.59
2023-04-11T10:55:17.147Z,99158.41
2023-04-11T10:59:53.195Z,99164.91
2023-04-11T11:03:59.712Z,99166.13
2023-04-11T11:08:03.002Z,99167.94
2023-04-11T11:12:08.568Z,99166.09
2023-04-11T11:16:15.909Z,99152.34
2023-04-11T11:20:20.340Z,99161.31
2023-04-11T11:24:26.211Z,99162.34
2023-04-11T11:28:31.106Z,99151.13
2023-04-11T11:32:34.426Z,99166.09
2023-04-11T11:36:41.320Z,99171.75
2023-04-11T11:40:44.329Z,99175.97
2023-04-11T11:44:48.683Z,99193.22
2023-04-11T11:49:00.030Z,99186.81
2023-04-11T11:53:14.335Z,99196.16
2023-04-11T11:57:22.699Z,99192.88
2023-04-11T12:01:27.008Z,99184.97
2023-04-11T12:05:32.653Z,99181.91
2023-04-11T12:09:36.187Z,99178.75
2023-04-11T12:13:39.125Z,99153.56
2023-04-11T12:17:43.653Z,99174.75
2023-04-11T12:21:46.515Z,99168.81
2023-04-11T12:25:49.368Z,99163.19
2023-04-11T12:29:52.136Z,99165.88
2023-04-11T12:33:57.441Z,99162.13
2023-04-11T12:38:00.661Z,99172.78
2023-04-11T12:42:03.489Z,99155.44
2023-04-11T12:46:07.762Z,99156.13
2023-04-11T12:50:12.591Z,99141.59
2023-04-11T12:54:15.749Z,99153.13
2023-04-11T12:58:18.557Z,99148.28
2023-04-11T13:02:21.817Z,99141.84
2023-04-11T13:06:26.330Z,99177.47
2023-04-11T13:10:29.144Z,99158.63
2023-04-11T13:14:32.495Z,99165.03
2023-04-11T13:18:35.018Z,99175.00
2023-04-11T13:22:39.829Z,99169.72
2023-04-11T13:26:44.854Z,99166.31
2023-04-11T13:30:47.694Z,99172.91
2023-04-11T13:34:51.890Z,99159.09
2023-04-11T13:38:57.382Z,99158.84
2023-04-11T13:43:01.260Z,99166.00
2023-04-11T13:47:04.498Z,99152.09
2023-04-11T13:51:07.727Z,99156.22
2023-04-11T13:55:12.096Z,99152.84
2023-04-11T13:59:15.140Z,99147.03
2023-04-11T14:03:18.158Z,99141.50
2023-04-11T14:07:21.121Z,99136.97
2023-04-11T14:11:25.808Z,99141.59
2023-04-11T14:15:28.662Z,99133.94
2023-04-11T14:19:31.435Z,99126.31
2023-04-11T14:23:34.501Z,99118.59
2023-04-11T14:27:39.061Z,99112.06
2023-04-11T14:31:42.297Z,99102.56
2023-04-11T14:35:47.426Z,99096.84
2023-04-11T14:39:50.391Z,99094.31
2023-04-11T14:43:54.868Z,99091.03
2023-04-11T14:47:58.061Z,99081.69
2023-04-11T14:52:01.277Z,99077.59
2023-04-11T14:56:06.153Z,99079.34
2023-04-11T15:00:18.110Z,99077.09
2023-04-11T15:04:21.094Z,99084.22
2023-04-11T15:08:23.944Z,99078.44
2023-04-11T15:12:26.779Z,99067.22
2023-04-11T15:16:31.212Z,99061.44
2023-04-11T15:20:34.055Z,99060.09
2023-04-11T15:24:36.883Z,99055.53
2023-04-11T15:28:40.477Z,99053.59
2023-04-11T15:32:44.886Z,99064.59
2023-04-11T15:36:47.610Z,99066.75
2023-04-11T15:40:51.399Z,99068.09
2023-04-11T15:44:54.862Z,99056.66
2023-04-11T15:48:58.745Z,99052.13
2023-04-11T15:53:01.425Z,99058.53
2023-04-11T15:57:04.651Z,99059.03
2023-04-11T16:01:08.316Z,99057.44
2023-04-11T16:05:12.658Z,99051.59
2023-04-11T16:09:15.700Z,99055.06
2023-04-11T16:13:18.494Z,99040.69
2023-04-11T16:17:21.724Z,99058.41
2023-04-11T16:21:26.296Z,99063.03
2023-04-11T16:25:29.160Z,99045.13
2023-04-11T16:29:31.898Z,99039.63
2023-04-11T16:33:34.607Z,99031.41
2023-04-11T16:37:38.595Z,99032.25
2023-04-11T16:41:41.479Z,99013.16
2023-04-11T16:45:44.700Z,99017.38
2023-04-11T16:49:47.608Z,99021.56
2023-04-11T16:53:53.224Z,99009.50
2023-04-11T16:57:56.014Z,99020.34
2023-04-11T17:01:58.896Z,99016.19
2023-04-11T17:06:01.827Z,99016.06
2023-04-11T17:10:07.143Z,99023.94
2023-04-11T17:14:10.839Z,99010.94
2023-04-11T17:18:13.735Z,99011.00
2023-04-11T17:22:16.631Z,99000.41
2023-04-11T17:26:21.006Z,98999.47
2023-04-11T17:30:23.917Z,99004.09
2023-04-11T17:34:27.357Z,98992.91
2023-04-11T17:38:30.029Z,99007.28
2023-04-11T17:42:34.183Z,99006.81
2023-04-11T17:46:37.269Z,99001.06
2023-04-11T17:50:40.091Z,98992.31
2023-04-11T17:54:43.046Z,98993.22
2023-04-11T17:58:48.124Z,99000.34
2023-04-11T18:02:52.668Z,98999.34
2023-04-11T18:06:56.060Z,98996.84
2023-04-11T18:10:59.277Z,98985.94
2023-04-11T18:15:03.884Z,98985.38
2023-04-11T18:19:06.748Z,98987.84
2023-04-11T18:23:09.555Z,98980.66
2023-04-11T18:27:12.467Z,98964.91
2023-04-11T18:31:16.886Z,98968.84
2023-04-11T18:35:20.016Z,98952.84
2023-04-11T18:39:23.592Z,98961.91
2023-04-11T18:43:26.321Z,98957.63
2023-04-11T18:47:30.872Z,98950.50
2023-04-11T18:51:35.539Z,98945.38
2023-04-11T18:55:39.626Z,98940.44
2023-04-11T18:59:44.476Z,98940.63
2023-04-11T19:03:49.441Z,98940.28
2023-04-11T19:07:52.893Z,98941.66
2023-04-11T19:11:55.842Z,98886.78
2023-04-11T19:15:58.597Z,98933.41
2023-04-11T19:20:06.523Z,98925.09
2023-04-11T19:24:09.738Z,98927.16
2023-04-11T19:28:12.592Z,98903.41
2023-04-11T19:32:17.643Z,98906.53
2023-04-11T19:36:22.413Z,98904.94
2023-04-11T19:40:25.096Z,98900.03
2023-04-11T19:44:30.609Z,98895.63
2023-04-11T19:48:33.662Z,98896.38
2023-04-11T19:52:37.881Z,98882.72
2023-04-11T19:56:44.354Z,98878.88
2023-04-11T20:00:47.393Z,98876.16
2023-04-11T20:04:50.606Z,98866.25
2023-04-11T20:08:54.796Z,98858.66
2023-04-11T20:12:57.676Z,98845.81
2023-04-11T20:17:00.884Z,98834.97
2023-04-11T20:21:06.293Z,98832.03
2023-04-11T20:25:11.837Z,98826.22
2023-04-11T20:29:17.966Z,98827.28
2023-04-11T20:33:20.967Z,98821.91
2023-04-11T20:37:23.944Z,98820.84
2023-04-11T20:41:28.292Z,98814.16
2023-04-11T20:45:33.108Z,98807.38
2023-04-11T20:49:36.223Z,98808.38
2023-04-11T20:53:39.092Z,98806.13
2023-04-11T20:57:44.663Z,98791.59
2023-04-11T21:01:48.549Z,98784.66
2023-04-11T21:05:51.482Z,98772.41
2023-04-11T21:09:56.366Z,98768.28
2023-04-11T21:14:00.773Z,98760.31
2023-04-11T21:18:06.831Z,98753.16
2023-04-11T21:22:10.535Z,98741.06
2023-04-11T21:26:13.414Z,98744.94
2023-04-11T21:30:17.897Z,98735.16
2023-04-11T21:34:21.104Z,98744.31
2023-04-11T21:38:24.142Z,98737.56
2023-04-11T21:42:27.212Z,98728.25
2023-04-11T21:46:32.199Z,98709.81
2023-04-11T21:50:35.571Z,98711.19
2023-04-11T21:54:38.838Z,98718.56
2023-04-11T21:58:42.047Z,98722.59
2023-04-11T22:02:46.625Z,98706.22
2023-04-11T22:06:49.578Z,98690.91
2023-04-11T22:10:54.314Z,98659.41
2023-04-11T22:14:57.420Z,98720.72
2023-04-11T22:19:02.519Z,98705.97
2023-04-11T22:23:06.461Z,98687.84
2023-04-11T22:27:10.395Z,98696.81
2023-04-11T22:31:14.291Z,98685.50
2023-04-11T22:35:18.881Z,98686.13
2023-04-11T22:39:22.499Z,98672.50
2023-04-11T22:43:25.791Z,98675.72
2023-04-11T22:47:28.691Z,98674.47
2023-04-11T22:51:33.511Z,98663.63
2023-04-11T22:55:40.061Z,98662.03
2023-04-11T22:59:43.169Z,98664.34
2023-04-11T23:03:46.071Z,98658.56
2023-04-11T23:07:50.730Z,98645.63
2023-04-11T23:11:53.668Z,98659.16
2023-04-11T23:15:57.234Z,98630.91
2023-04-11T23:20:01.884Z,98651.94
2023-04-11T23:24:07.065Z,98649.28
2023-04-11T23:28:10.027Z,98623.06
2023-04-11T23:32:12.734Z,98624.63
2023-04-11T23:36:16.767Z,98617.22
2023-04-11T23:40:21.464Z,98612.69
2023-04-11T23:44:24.316Z,98592.66
2023-04-11T23:48:27.389Z,98592.69
2023-04-11T23:52:31.209Z,98583.78
2023-04-11T23:56:35.411Z,98566.69
